createdAt,value
2023-03-21T00:01:08.591Z,18.35
2023-03-21T00:03:37.934Z,19.27
2023-03-21T00:06:11.351Z,19.20
2023-03-21T00:08:40.592Z,19.55
2023-03-21T00:11:11.026Z,19.20
2023-03-21T00:13:42.310Z,19.38
2023-03-21T00:16:20.977Z,19.17
2023-03-21T00:18:55.977Z,19.70
2023-03-21T00:22:05.493Z,20.80
2023-03-21T00:24:20.993Z,21.08
2023-03-21T00:26:49.423Z,21.13
2023-03-21T00:29:18.017Z,19.75
2023-03-21T00:31:48.294Z,20.52
2023-03-21T00:34:20.150Z,21.85
2023-03-21T00:36:57.424Z,21.02
2023-03-21T00:39:25.984Z,20.35
2023-03-21T00:41:54.409Z,20.52
2023-03-21T00:44:23.541Z,20.35
2023-03-21T00:47:06.344Z,20.88
2023-03-21T00:49:38.172Z,20.00
2023-03-21T00:52:24.761Z,19.70
2023-03-21T00:54:59.526Z,19.90
2023-03-21T00:57:38.583Z,21.17
2023-03-21T01:00:10.930Z,20.15
2023-03-21T01:02:43.454Z,20.55
2023-03-21T01:05:23.242Z,20.15
2023-03-21T01:07:53.366Z,18.92
2023-03-21T01:10:23.562Z,20.52
2023-03-21T01:12:51.996Z,20.67
2023-03-21T01:15:20.707Z,20.35
2023-03-21T01:17:49.011Z,20.15
2023-03-21T01:20:17.531Z,21.10
2023-03-21T01:22:45.928Z,21.08
2023-03-21T01:25:22.425Z,19.27
2023-03-21T01:27:51.598Z,20.63
2023-03-21T01:30:23.917Z,18.50
2023-03-21T01:32:53.578Z,18.38
2023-03-21T01:35:23.013Z,18.42
2023-03-21T01:37:51.807Z,18.23
2023-03-21T01:40:25.849Z,18.20
2023-03-21T01:43:01.737Z,18.85
2023-03-21T01:46:37.217Z,18.38
2023-03-21T01:49:26.165Z,18.60
2023-03-21T01:52:14.001Z,18.23
2023-03-21T01:54:47.696Z,17.63
2023-03-21T01:57:25.891Z,17.17
2023-03-21T01:59:56.459Z,17.55
2023-03-21T02:02:29.153Z,17.13
2023-03-21T02:05:07.435Z,17.15
2023-03-21T02:07:41.864Z,17.77
2023-03-21T02:10:13.840Z,16.48
2023-03-21T02:12:47.848Z,18.00
2023-03-21T02:15:17.140Z,17.52
2023-03-21T02:18:08.540Z,17.50
2023-03-21T02:21:20.235Z,18.20
2023-03-21T02:24:54.602Z,17.40
2023-03-21T02:27:30.848Z,17.48
2023-03-21T02:30:52.071Z,16.38
2023-03-21T02:34:02.228Z,15.43
2023-03-21T02:37:03.786Z,15.10
2023-03-21T02:39:48.021Z,14.75
2023-03-21T02:42:21.712Z,15.90
2023-03-21T02:45:00.788Z,15.00
2023-03-21T02:47:35.224Z,15.07
2023-03-21T02:50:13.147Z,13.82
2023-03-21T02:52:47.094Z,15.05
2023-03-21T02:55:21.108Z,14.70
2023-03-21T02:58:11.676Z,15.07
2023-03-21T03:00:45.322Z,15.43
2023-03-21T03:03:31.478Z,14.75
2023-03-21T03:06:04.274Z,15.20
2023-03-21T03:08:56.095Z,14.77
2023-03-21T03:11:31.382Z,14.10
2023-03-21T03:14:39.985Z,14.43
2023-03-21T03:17:23.600Z,13.93
2023-03-21T03:20:17.510Z,13.38
2023-03-21T03:22:58.234Z,14.48
2023-03-21T03:25:42.536Z,14.10
2023-03-21T03:28:16.632Z,13.50
2023-03-21T03:31:00.773Z,13.27
2023-03-21T03:33:42.362Z,13.63
2023-03-21T03:36:28.694Z,12.93
2023-03-21T03:38:59.683Z,14.95
2023-03-21T03:41:36.568Z,15.55
2023-03-21T03:44:19.261Z,15.52
2023-03-21T03:47:01.052Z,16.30
2023-03-21T03:49:33.904Z,16.27
2023-03-21T03:52:12.451Z,16.25
2023-03-21T03:54:50.986Z,17.23
2023-03-21T03:57:22.191Z,15.48
2023-03-21T03:59:50.898Z,15.18
2023-03-21T04:02:20.432Z,16.40
2023-03-21T04:04:53.413Z,15.23
2023-03-21T04:07:23.106Z,14.85
2023-03-21T04:09:53.925Z,15.48
2023-03-21T04:12:24.070Z,15.13
2023-03-21T04:15:13.232Z,15.82
2023-03-21T04:17:47.264Z,14.45
2023-03-21T04:20:23.790Z,15.30
2023-03-21T04:23:03.170Z,14.38
2023-03-21T04:25:35.013Z,15.18
2023-03-21T04:28:07.449Z,14.43
2023-03-21T04:31:00.427Z,16.40
2023-03-21T04:33:32.412Z,15.45
2023-03-21T04:36:01.151Z,15.13
2023-03-21T04:38:33.924Z,14.73
2023-03-21T04:41:05.302Z,15.05
2023-03-21T04:43:34.961Z,15.65
2023-03-21T04:46:04.061Z,15.32
2023-03-21T04:48:32.524Z,15.38
2023-03-21T04:51:02.283Z,14.50
2023-03-21T04:53:30.569Z,14.32
2023-03-21T04:55:59.016Z,14.18
2023-03-21T04:58:27.505Z,14.30
2023-03-21T05:00:57.353Z,13.60
2023-03-21T05:03:25.748Z,14.13
2023-03-21T05:05:53.963Z,14.50
2023-03-21T05:08:23.607Z,15.45
2023-03-21T05:10:52.226Z,15.70
2023-03-21T05:13:21.890Z,14.68
2023-03-21T05:15:50.856Z,14.30
2023-03-21T05:18:24.774Z,15.43
2023-03-21T05:21:13.455Z,14.25
2023-03-21T05:23:42.266Z,15.07
2023-03-21T05:26:11.869Z,14.52
2023-03-21T05:28:48.097Z,14.38
2023-03-21T05:31:17.198Z,14.63
2023-03-21T05:33:49.476Z,14.20
2023-03-21T05:36:20.396Z,15.07
2023-03-21T05:38:48.970Z,14.70
2023-03-21T05:41:19.391Z,14.93
2023-03-21T05:43:48.520Z,13.43
2023-03-21T05:46:17.513Z,14.32
2023-03-21T05:48:47.983Z,14.80
2023-03-21T05:51:19.991Z,14.63
2023-03-21T05:53:48.576Z,14.50
2023-03-21T05:56:17.837Z,14.13
2023-03-21T05:59:06.454Z,13.63
2023-03-21T06:01:40.473Z,13.63
2023-03-21T06:04:15.782Z,14.90
2023-03-21T06:09:14.361Z,14.82
2023-03-21T06:11:51.295Z,14.10
2023-03-21T06:14:26.941Z,14.63
2023-03-21T06:17:15.955Z,13.43
2023-03-21T06:19:51.312Z,13.82
2023-03-21T06:22:25.158Z,14.95
2023-03-21T06:24:53.837Z,15.25
2023-03-21T06:27:22.239Z,14.70
2023-03-21T06:29:57.998Z,14.38
2023-03-21T06:32:26.925Z,13.77
2023-03-21T06:35:01.060Z,13.07
2023-03-21T06:37:29.512Z,13.47
2023-03-21T06:39:58.115Z,13.70
2023-03-21T06:42:27.030Z,14.60
2023-03-21T06:45:01.121Z,14.32
2023-03-21T06:47:30.415Z,13.70
2023-03-21T06:50:00.174Z,14.38
2023-03-21T06:52:28.779Z,14.13
2023-03-21T06:54:57.160Z,13.35
2023-03-21T06:57:25.485Z,14.20
2023-03-21T06:59:54.168Z,12.80
2023-03-21T07:02:25.239Z,13.57
2023-03-21T07:05:10.689Z,13.98
2023-03-21T07:07:39.263Z,13.60
2023-03-21T07:10:11.437Z,13.02
2023-03-21T07:13:09.078Z,13.57
2023-03-21T07:15:45.586Z,13.02
2023-03-21T07:18:14.389Z,13.65
2023-03-21T07:20:50.943Z,13.45
2023-03-21T07:23:20.457Z,13.30
2023-03-21T07:25:50.084Z,14.07
2023-03-21T07:28:19.519Z,13.60
2023-03-21T07:30:56.374Z,15.60
2023-03-21T07:33:26.747Z,14.13
2023-03-21T07:36:01.687Z,14.02
2023-03-21T07:38:31.428Z,13.95
2023-03-21T07:41:01.489Z,14.77
2023-03-21T07:43:33.137Z,13.60
2023-03-21T07:46:01.932Z,13.70
2023-03-21T07:48:30.720Z,13.45
2023-03-21T07:51:02.285Z,13.77
2023-03-21T07:53:30.746Z,11.82
2023-03-21T07:55:59.110Z,12.13
2023-03-21T07:58:28.551Z,12.20
2023-03-21T08:00:57.271Z,11.70
2023-03-21T08:03:26.402Z,11.02
2023-03-21T08:05:54.775Z,11.18
2023-03-21T08:08:24.447Z,11.18
2023-03-21T08:10:52.752Z,10.55
2023-03-21T08:13:21.070Z,11.20
2023-03-21T08:15:49.384Z,11.00
2023-03-21T08:18:17.692Z,9.93
2023-03-21T08:20:46.098Z,9.60
2023-03-21T08:23:14.789Z,9.85
2023-03-21T08:25:44.616Z,10.00
2023-03-21T08:28:13.010Z,10.17
2023-03-21T08:30:41.350Z,10.20
2023-03-21T08:33:09.770Z,10.95
2023-03-21T08:35:40.911Z,11.45
2023-03-21T08:38:10.058Z,11.63
2023-03-21T08:40:39.071Z,12.25
2023-03-21T08:43:08.983Z,12.52
2023-03-21T08:45:37.553Z,12.70
2023-03-21T08:48:06.777Z,13.43
2023-03-21T08:50:36.040Z,13.20
2023-03-21T08:53:04.633Z,12.75
2023-03-21T08:55:33.247Z,13.95
2023-03-21T08:58:01.984Z,12.82
2023-03-21T09:00:32.344Z,12.80
2023-03-21T09:03:01.560Z,14.30
2023-03-21T09:05:29.938Z,12.95
2023-03-21T09:07:58.316Z,13.25
2023-03-21T09:10:26.763Z,14.05
2023-03-21T09:12:56.570Z,13.43
2023-03-21T09:15:28.748Z,14.77
2023-03-21T09:18:12.969Z,14.27
2023-03-21T09:20:43.135Z,13.40
2023-03-21T09:23:13.169Z,14.27
2023-03-21T09:25:42.304Z,13.70
2023-03-21T09:28:10.713Z,14.48
2023-03-21T09:30:39.519Z,14.23
2023-03-21T09:33:13.083Z,13.52
2023-03-21T09:35:42.860Z,14.15
2023-03-21T09:38:11.188Z,15.03
2023-03-21T09:40:59.481Z,12.88
2023-03-21T09:43:42.548Z,14.05
2023-03-21T09:46:18.876Z,13.80
2023-03-21T09:48:57.868Z,13.18
2023-03-21T09:51:31.697Z,13.82
2023-03-21T09:54:04.929Z,14.00
2023-03-21T09:56:33.566Z,14.25
2023-03-21T09:59:03.742Z,13.20
2023-03-21T10:01:35.196Z,14.27
2023-03-21T10:04:08.025Z,14.90
2023-03-21T10:06:41.192Z,14.10
2023-03-21T10:09:15.830Z,14.05
2023-03-21T10:11:48.749Z,13.90
2023-03-21T10:14:22.725Z,14.45
2023-03-21T10:16:53.868Z,14.43
2023-03-21T10:19:23.655Z,15.45
2023-03-21T10:22:03.131Z,15.50
2023-03-21T10:24:35.348Z,13.90
2023-03-21T10:27:05.598Z,14.73
2023-03-21T10:29:42.233Z,14.23
2023-03-21T10:32:13.164Z,15.65
2023-03-21T10:34:46.346Z,14.93
2023-03-21T10:37:17.019Z,15.50
2023-03-21T10:42:21.907Z,15.48
2023-03-21T10:44:52.833Z,16.63
2023-03-21T10:47:24.342Z,16.85
2023-03-21T10:50:11.018Z,16.13
2023-03-21T10:52:48.237Z,17.67
2023-03-21T10:55:24.405Z,17.10
2023-03-21T10:57:59.014Z,17.35
2023-03-21T11:00:31.806Z,17.42
2023-03-21T11:03:00.968Z,16.80
2023-03-21T11:05:39.364Z,16.77
2023-03-21T11:08:13.771Z,15.57
2023-03-21T11:10:54.608Z,16.40
2023-03-21T11:15:58.222Z,15.63
2023-03-21T11:18:28.476Z,15.77
2023-03-21T11:21:03.535Z,15.93
2023-03-21T11:23:34.449Z,15.05
2023-03-21T11:26:04.305Z,14.40
2023-03-21T11:28:38.005Z,14.48
2023-03-21T11:31:09.200Z,13.55
2023-03-21T11:33:41.359Z,13.55
2023-03-21T11:36:33.754Z,10.98
2023-03-21T11:39:16.306Z,12.15
2023-03-21T11:41:49.227Z,10.80
2023-03-21T11:44:30.586Z,11.05
2023-03-21T11:46:59.363Z,12.50
2023-03-21T11:49:28.732Z,12.13
2023-03-21T11:52:15.159Z,12.20
2023-03-21T11:55:07.517Z,11.75
2023-03-21T11:57:45.859Z,11.75
2023-03-21T12:00:22.546Z,11.02
2023-03-21T12:03:47.787Z,10.98
2023-03-21T12:06:26.677Z,11.40
2023-03-21T12:09:24.316Z,13.73
2023-03-21T12:12:06.184Z,10.93
2023-03-21T12:14:45.240Z,12.43
2023-03-21T12:17:31.875Z,12.13
2023-03-21T12:20:31.720Z,11.27
2023-03-21T12:23:48.472Z,11.55
2023-03-21T12:26:27.176Z,10.55
2023-03-21T12:29:27.270Z,9.63
2023-03-21T12:32:21.045Z,9.75
2023-03-21T12:35:17.618Z,11.02
2023-03-21T12:37:59.293Z,10.27
2023-03-21T12:40:50.910Z,10.32
2023-03-21T12:43:42.437Z,10.30
2023-03-21T12:46:18.154Z,10.70
2023-03-21T12:48:51.309Z,11.07
2023-03-21T12:51:25.019Z,11.13
2023-03-21T12:54:02.018Z,11.57
2023-03-21T12:56:35.189Z,10.32
2023-03-21T12:59:19.360Z,12.40
2023-03-21T13:01:49.202Z,11.43
2023-03-21T13:04:38.121Z,11.60
2023-03-21T13:07:11.533Z,11.80
2023-03-21T13:09:42.464Z,11.05
2023-03-21T13:12:42.360Z,10.93
2023-03-21T13:15:40.571Z,12.52
2023-03-21T13:18:22.202Z,12.15
2023-03-21T13:20:54.710Z,12.15
2023-03-21T13:23:24.926Z,12.48
2023-03-21T13:25:56.298Z,12.13
2023-03-21T13:28:29.318Z,11.88
2023-03-21T13:31:19.661Z,12.55
2023-03-21T13:33:49.884Z,12.20
2023-03-21T13:36:27.595Z,11.73
2023-03-21T13:39:04.038Z,11.82
2023-03-21T13:41:36.395Z,11.23
2023-03-21T13:44:20.980Z,11.82
2023-03-21T13:46:57.240Z,11.32
2023-03-21T13:49:32.724Z,10.73
2023-03-21T13:52:03.103Z,11.10
2023-03-21T13:54:51.053Z,10.88
2023-03-21T13:57:39.982Z,10.40
2023-03-21T14:00:30.061Z,10.80
2023-03-21T14:03:06.850Z,10.63
2023-03-21T14:05:37.576Z,10.07
2023-03-21T14:08:15.715Z,10.63
2023-03-21T14:10:50.097Z,10.65
2023-03-21T14:13:22.459Z,11.85
2023-03-21T14:15:56.857Z,11.18
2023-03-21T14:18:53.012Z,10.10
2023-03-21T14:21:24.235Z,10.65
2023-03-21T14:24:01.987Z,10.20
2023-03-21T14:26:34.321Z,10.77
2023-03-21T14:29:12.419Z,9.90
2023-03-21T14:31:49.454Z,10.50
2023-03-21T14:34:19.898Z,9.18
2023-03-21T14:36:56.917Z,9.00
2023-03-21T14:39:30.729Z,9.18
2023-03-21T14:42:04.996Z,8.98
2023-03-21T14:44:53.391Z,9.60
2023-03-21T14:47:25.178Z,8.98
2023-03-21T14:49:55.456Z,8.70
2023-03-21T14:52:26.991Z,8.57
2023-03-21T14:54:56.896Z,8.35
2023-03-21T14:57:30.407Z,6.90
2023-03-21T15:00:04.691Z,8.73
2023-03-21T15:02:36.630Z,7.72
2023-03-21T15:05:15.546Z,7.88
2023-03-21T15:07:43.869Z,6.72
2023-03-21T15:10:18.328Z,7.25
2023-03-21T15:12:55.321Z,7.53
2023-03-21T15:15:27.386Z,6.38
2023-03-21T15:18:07.160Z,6.55
2023-03-21T15:20:39.570Z,6.50
2023-03-21T15:23:12.993Z,6.70
2023-03-21T15:25:42.115Z,6.82
2023-03-21T15:28:14.836Z,6.47
2023-03-21T15:30:50.264Z,6.88
2023-03-21T15:33:19.973Z,7.47
2023-03-21T15:35:55.554Z,7.30
2023-03-21T15:38:30.599Z,6.63
2023-03-21T15:41:28.053Z,7.13
2023-03-21T15:44:05.205Z,6.25
2023-03-21T15:46:42.247Z,6.90
2023-03-21T15:49:18.863Z,7.38
2023-03-21T15:51:53.333Z,7.28
2023-03-21T15:54:27.168Z,7.80
2023-03-21T15:56:57.658Z,8.88
2023-03-21T15:59:29.885Z,8.07
2023-03-21T16:01:58.388Z,8.88
2023-03-21T16:04:27.006Z,8.75
2023-03-21T16:07:02.218Z,8.93
2023-03-21T16:09:42.883Z,8.25
2023-03-21T16:12:13.906Z,7.82
2023-03-21T16:14:42.984Z,8.65
2023-03-21T16:17:37.548Z,8.15
2023-03-21T16:20:14.805Z,7.82
2023-03-21T16:22:44.539Z,8.60
2023-03-21T16:25:12.869Z,8.20
2023-03-21T16:27:41.227Z,7.40
2023-03-21T16:30:13.328Z,6.25
2023-03-21T16:32:41.754Z,5.25
2023-03-21T16:35:11.224Z,4.60
2023-03-21T16:37:39.957Z,5.07
2023-03-21T16:40:20.177Z,4.68
2023-03-21T16:42:48.530Z,5.32
2023-03-21T16:45:16.993Z,4.70
2023-03-21T16:47:45.773Z,4.63
2023-03-21T16:50:27.789Z,4.85
2023-03-21T16:52:57.557Z,4.50
2023-03-21T16:55:27.861Z,4.60
2023-03-21T16:57:57.432Z,4.50
2023-03-21T17:00:30.773Z,4.72
2023-03-21T17:03:03.685Z,4.07
2023-03-21T17:05:32.846Z,4.20
2023-03-21T17:08:04.187Z,4.68
2023-03-21T17:10:34.568Z,4.07
2023-03-21T17:13:03.125Z,4.00
2023-03-21T17:15:31.452Z,4.20
2023-03-21T17:17:59.901Z,4.55
2023-03-21T17:20:32.653Z,4.45
2023-03-21T17:23:01.798Z,4.75
2023-03-21T17:25:30.422Z,4.63
2023-03-21T17:28:01.066Z,5.18
2023-03-21T17:30:32.395Z,4.88
2023-03-21T17:33:01.264Z,4.93
2023-03-21T17:35:30.643Z,4.32
2023-03-21T17:38:00.453Z,4.60
2023-03-21T17:40:32.069Z,5.40
2023-03-21T17:43:02.051Z,4.28
2023-03-21T17:45:30.718Z,5.25
2023-03-21T17:47:59.136Z,5.13
2023-03-21T17:50:34.248Z,5.68
2023-03-21T17:53:02.542Z,5.18
2023-03-21T17:55:31.454Z,5.53
2023-03-21T17:58:01.350Z,6.20
2023-03-21T18:00:31.420Z,5.50
2023-03-21T18:03:00.231Z,5.93
2023-03-21T18:05:28.650Z,5.55
2023-03-21T18:08:13.054Z,5.30
2023-03-21T18:10:42.834Z,5.75
2023-03-21T18:13:12.629Z,5.17
2023-03-21T18:15:44.082Z,5.68
2023-03-21T18:18:13.228Z,6.28
2023-03-21T18:20:51.697Z,4.93
2023-03-21T18:23:21.072Z,5.43
2023-03-21T18:25:49.860Z,5.82
2023-03-21T18:28:21.325Z,6.43
2023-03-21T18:31:09.520Z,5.53
2023-03-21T18:33:40.355Z,5.75
2023-03-21T18:36:10.833Z,5.47
2023-03-21T18:38:40.045Z,6.20
2023-03-21T18:41:09.395Z,5.53
2023-03-21T18:44:05.371Z,6.50
2023-03-21T18:46:30.384Z,6.32
2023-03-21T18:48:58.782Z,6.28
2023-03-21T18:51:27.150Z,7.30
2023-03-21T18:53:55.714Z,5.97
2023-03-21T18:59:14.222Z,6.28
2023-03-21T19:01:42.774Z,5.50
2023-03-21T19:04:23.039Z,5.32
2023-03-21T19:06:54.262Z,5.93
2023-03-21T19:09:29.469Z,5.50
2023-03-21T19:11:59.249Z,5.28
2023-03-21T19:14:29.406Z,5.57
2023-03-21T19:17:55.771Z,6.13
2023-03-21T19:19:47.868Z,6.93
2023-03-21T19:22:16.961Z,6.13
2023-03-21T19:24:45.983Z,5.72
2023-03-21T19:27:14.648Z,6.28
2023-03-21T19:29:56.995Z,6.40
2023-03-21T19:32:31.476Z,5.60
2023-03-21T19:35:00.063Z,5.88
2023-03-21T19:37:29.295Z,5.93
2023-03-21T19:39:57.828Z,6.35
2023-03-21T19:42:28.663Z,6.13
2023-03-21T19:45:00.387Z,6.25
2023-03-21T19:47:28.717Z,6.60
2023-03-21T19:52:46.180Z,7.13
2023-03-21T19:55:15.449Z,5.75
2023-03-21T19:57:43.829Z,6.95
2023-03-21T20:00:15.600Z,6.68
2023-03-21T20:02:45.258Z,6.80
2023-03-21T20:05:14.817Z,7.63
2023-03-21T20:07:43.145Z,6.65
2023-03-21T20:10:12.068Z,6.43
2023-03-21T20:12:40.434Z,6.72
2023-03-21T20:15:17.729Z,6.97
2023-03-21T20:17:50.736Z,5.97
2023-03-21T20:20:19.933Z,6.35
2023-03-21T20:23:10.921Z,6.13
2023-03-21T20:25:43.773Z,6.18
2023-03-21T20:28:17.259Z,5.97
2023-03-21T20:30:54.083Z,6.43
2023-03-21T20:33:23.964Z,6.50
2023-03-21T20:36:37.768Z,6.60
2023-03-21T20:38:47.451Z,6.60
2023-03-21T20:41:15.874Z,6.53
2023-03-21T20:44:34.661Z,6.30
2023-03-21T20:46:32.599Z,6.00
2023-03-21T20:49:02.247Z,5.47
2023-03-21T20:52:40.827Z,6.43
2023-03-21T20:54:19.137Z,6.40
2023-03-21T20:56:47.831Z,6.43
2023-03-21T20:59:24.939Z,5.90
2023-03-21T21:01:55.857Z,6.13
2023-03-21T21:04:46.685Z,6.57
2023-03-21T21:07:18.364Z,7.03
2023-03-21T21:09:47.120Z,6.20
2023-03-21T21:12:19.102Z,6.72
2023-03-21T21:14:48.299Z,6.97
2023-03-21T21:20:17.148Z,6.53
2023-03-21T21:22:58.535Z,5.88
2023-03-21T21:25:28.941Z,6.15
2023-03-21T21:27:57.384Z,6.47
2023-03-21T21:30:26.083Z,6.32
2023-03-21T21:32:54.400Z,6.25
2023-03-21T21:35:24.083Z,6.10
2023-03-21T21:37:52.464Z,6.85
2023-03-21T21:40:23.465Z,6.32
2023-03-21T21:42:51.933Z,6.57
2023-03-21T21:45:20.718Z,5.72
2023-03-21T21:47:49.223Z,5.93
2023-03-21T21:50:17.624Z,6.60
2023-03-21T21:52:52.560Z,5.88
2023-03-21T21:55:22.424Z,6.28
2023-03-21T21:57:53.062Z,5.95
2023-03-21T22:02:49.932Z,6.20
2023-03-21T22:05:19.365Z,7.07
2023-03-21T22:07:51.865Z,6.55
2023-03-21T22:10:21.488Z,5.35
2023-03-21T22:12:50.065Z,6.70
2023-03-21T22:15:19.164Z,4.95
2023-03-21T22:17:47.463Z,6.00
2023-03-21T22:20:17.996Z,6.50
2023-03-21T22:22:48.282Z,5.68
2023-03-21T22:25:18.184Z,5.25
2023-03-21T22:27:47.194Z,5.57
2023-03-21T22:30:17.674Z,6.53
2023-03-21T22:32:56.455Z,6.00
2023-03-21T22:35:32.031Z,6.45
2023-03-21T22:38:01.715Z,7.00
2023-03-21T22:40:30.067Z,7.47
2023-03-21T22:42:58.504Z,8.13
2023-03-21T22:45:26.931Z,7.70
2023-03-21T22:47:55.412Z,8.55
2023-03-21T22:50:23.779Z,7.32
2023-03-21T22:52:52.025Z,6.47
2023-03-21T22:55:21.720Z,6.45
2023-03-21T22:57:50.039Z,7.10
2023-03-21T23:00:20.079Z,7.60
2023-03-21T23:02:48.477Z,7.15
2023-03-21T23:05:16.849Z,7.55
2023-03-21T23:07:45.196Z,8.02
2023-03-21T23:10:13.618Z,6.93
2023-03-21T23:12:43.450Z,6.35
2023-03-21T23:15:12.760Z,6.57
2023-03-21T23:17:41.055Z,6.30
2023-03-21T23:20:10.908Z,7.13
2023-03-21T23:22:39.617Z,7.57
2023-03-21T23:25:09.262Z,7.43
2023-03-21T23:27:38.209Z,7.20
2023-03-21T23:30:09.476Z,7.57
2023-03-21T23:32:37.783Z,7.15
2023-03-21T23:35:07.497Z,6.88
2023-03-21T23:37:35.825Z,6.80
2023-03-21T23:40:06.185Z,6.35
2023-03-21T23:42:35.877Z,6.07
2023-03-21T23:45:04.398Z,6.80
2023-03-21T23:47:34.100Z,7.15
2023-03-21T23:50:02.379Z,7.72
2023-03-21T23:52:30.761Z,6.95
2023-03-21T23:54:59.269Z,6.82
2023-03-21T23:57:28.163Z,7.03
2023-03-21T23:59:56.779Z,6.50
